Time;durP1;ratioP1;P1;durP2;ratioP2;P2;SDS_P1;SDS_P2;PMS_P1;PMS_P2;Temp;Humidity;BMP_temperature;BMP_pressure;BME280_temperature;BME280_humidity;BME280_pressure;Samples;Min_cycle;Max_cycle;Signal;HPM_P1;HPM_P2
2021/05/25 00:01:10;;;;;;;4.00;1.40;;;19.00;49.30;;;;;;5099710;28;20035;-73
2021/05/25 00:03:36;;;;;;;3.13;1.27;;;19.10;49.30;;;;;;5100266;28;20027;-71
2021/05/25 00:06:02;;;;;;;3.17;1.50;;;19.00;49.30;;;;;;5094668;28;20372;-71
2021/05/25 00:08:27;;;;;;;2.17;1.13;;;19.00;49.30;;;;;;5094238;28;20540;-72
2021/05/25 00:10:53;;;;;;;3.05;1.60;;;19.00;49.30;;;;;;5093948;28;20032;-70
2021/05/25 00:13:18;;;;;;;3.30;1.55;;;19.00;49.20;;;;;;5094261;28;20400;-71
2021/05/25 00:15:45;;;;;;;2.47;1.10;;;19.00;49.30;;;;;;5094183;28;20030;-71
2021/05/25 00:18:11;;;;;;;2.50;1.20;;;19.00;49.20;;;;;;5093814;28;20019;-73
2021/05/25 00:20:36;;;;;;;2.97;1.67;;;19.00;49.20;;;;;;5094083;28;20020;-72
2021/05/25 00:23:02;;;;;;;2.60;1.20;;;19.00;49.30;;;;;;5094024;28;20079;-72
2021/05/25 00:25:27;;;;;;;3.97;1.63;;;19.00;49.30;;;;;;5094127;28;20071;-71
2021/05/25 00:27:54;;;;;;;3.15;1.50;;;19.00;49.20;;;;;;5094223;28;20603;-72
2021/05/25 00:30:21;;;;;;;3.88;1.45;;;19.00;49.30;;;;;;5094090;28;20028;-72
2021/05/25 00:32:47;;;;;;;3.40;1.30;;;19.00;49.20;;;;;;5093730;28;20020;-71
2021/05/25 00:35:13;;;;;;;3.30;1.60;;;19.00;49.20;;;;;;5093609;28;20517;-71
2021/05/25 00:37:39;;;;;;;3.50;1.50;;;19.00;49.20;;;;;;5093860;28;20039;-73
2021/05/25 00:40:07;;;;;;;4.45;1.83;;;19.00;49.20;;;;;;5093612;28;20024;-72
2021/05/25 00:42:33;;;;;;;3.92;1.70;;;19.00;49.20;;;;;;5093765;28;20054;-73
2021/05/25 00:44:58;;;;;;;3.88;1.73;;;19.00;49.20;;;;;;5094018;28;20028;-71
2021/05/25 00:47:35;;;;;;;5.03;1.90;;;19.00;49.20;;;;;;5093665;28;20497;-71
2021/05/25 00:50:11;;;;;;;4.38;1.85;;;19.00;49.20;;;;;;5093620;28;20025;-72
2021/05/25 00:52:42;;;;;;;3.97;2.10;;;19.00;49.20;;;;;;5093649;28;20020;-71
2021/05/25 00:55:10;;;;;;;3.50;1.80;;;19.00;49.20;;;;;;5093879;28;20044;-73
2021/05/25 00:57:36;;;;;;;3.72;1.83;;;19.00;49.20;;;;;;5093922;28;20063;-73
2021/05/25 01:00:05;;;;;;;3.67;1.83;;;19.00;49.20;;;;;;5093691;28;20028;-73
2021/05/25 01:02:31;;;;;;;4.78;2.25;;;19.00;49.20;;;;;;5093662;28;20020;-73
2021/05/25 01:04:58;;;;;;;4.38;1.92;;;19.00;49.20;;;;;;5094581;28;20448;-73
2021/05/25 01:07:24;;;;;;;3.60;1.92;;;19.00;49.20;;;;;;5097765;28;20032;-73
2021/05/25 01:09:51;;;;;;;4.70;2.40;;;19.00;49.20;;;;;;5098018;28;20115;-73
2021/05/25 01:12:16;;;;;;;4.35;2.13;;;18.90;49.20;;;;;;5097793;28;20024;-73
2021/05/25 01:14:49;;;;;;;4.75;1.90;;;19.00;49.20;;;;;;5096272;28;20024;-74
2021/05/25 01:17:16;;;;;;;5.43;2.40;;;18.90;49.20;;;;;;5097630;28;20035;-73
2021/05/25 01:19:41;;;;;;;5.32;2.63;;;18.90;49.20;;;;;;5097408;28;20463;-72
2021/05/25 01:22:07;;;;;;;5.15;2.35;;;18.90;49.10;;;;;;5096823;28;20055;-72
2021/05/25 01:24:32;;;;;;;6.47;2.90;;;19.00;49.20;;;;;;5097490;28;20028;-72
2021/05/25 01:27:03;;;;;;;4.10;2.25;;;18.90;49.20;;;;;;5097320;28;20520;-72
2021/05/25 01:29:30;;;;;;;4.40;2.13;;;18.90;49.20;;;;;;5097092;28;20023;-71
2021/05/25 01:31:56;;;;;;;7.22;2.58;;;19.00;49.20;;;;;;5097015;28;20021;-72
2021/05/25 01:34:22;;;;;;;5.60;2.50;;;18.90;49.20;;;;;;5097386;28;20107;-72
2021/05/25 01:36:47;;;;;;;5.03;2.38;;;18.90;49.20;;;;;;5097302;28;20028;-72
2021/05/25 01:39:14;;;;;;;5.20;2.90;;;18.90;49.20;;;;;;5097274;28;20089;-72
2021/05/25 01:41:39;;;;;;;5.45;2.95;;;18.90;49.20;;;;;;5097047;28;20016;-73
2021/05/25 01:44:05;;;;;;;4.97;2.40;;;18.90;49.20;;;;;;5097298;28;20077;-72
2021/05/25 01:46:31;;;;;;;4.63;2.53;;;18.90;49.20;;;;;;5097025;28;20438;-72
2021/05/25 01:48:56;;;;;;;5.72;2.63;;;18.90;49.20;;;;;;5096625;28;20437;-72
2021/05/25 01:51:22;;;;;;;5.72;2.70;;;18.90;49.20;;;;;;5096787;28;20394;-72
2021/05/25 01:53:48;;;;;;;5.13;2.40;;;18.90;49.20;;;;;;5096699;28;20030;-72
2021/05/25 01:56:14;;;;;;;4.55;2.40;;;18.90;49.20;;;;;;5096799;28;20060;-72
2021/05/25 01:58:40;;;;;;;4.88;2.60;;;18.90;49.20;;;;;;5096990;28;20095;-72
2021/05/25 02:01:10;;;;;;;5.43;2.95;;;18.90;49.10;;;;;;5096586;28;20158;-72
2021/05/25 02:03:37;;;;;;;5.75;2.70;;;18.90;49.20;;;;;;5098631;28;20039;-72
2021/05/25 02:06:04;;;;;;;5.25;2.65;;;18.90;49.20;;;;;;5097337;28;20474;-72
2021/05/25 02:08:31;;;;;;;5.47;2.70;;;18.90;49.20;;;;;;5096312;28;20032;-72
2021/05/25 02:11:02;;;;;;;5.63;3.03;;;18.90;49.10;;;;;;5096907;28;20103;-72
2021/05/25 02:13:31;;;;;;;5.88;2.97;;;18.90;49.20;;;;;;5096541;28;20016;-72
2021/05/25 02:16:03;;;;;;;6.43;3.00;;;18.90;49.20;;;;;;5094936;28;20388;-71
2021/05/25 02:18:34;;;;;;;6.78;3.30;;;18.90;49.10;;;;;;5096319;28;20051;-72
2021/05/25 02:21:02;;;;;;;5.68;2.90;;;18.90;49.10;;;;;;5096537;28;20028;-72
2021/05/25 02:23:28;;;;;;;5.43;2.80;;;18.90;49.10;;;;;;5096170;28;20052;-72
2021/05/25 02:25:54;;;;;;;5.32;2.60;;;18.90;49.10;;;;;;5096391;28;20043;-72
2021/05/25 02:28:20;;;;;;;5.45;2.67;;;18.90;49.10;;;;;;5096258;28;20103;-72
2021/05/25 02:30:46;;;;;;;5.53;2.90;;;18.80;49.10;;;;;;5096163;28;20106;-72
2021/05/25 02:33:15;;;;;;;5.95;2.92;;;18.90;49.10;;;;;;5095946;28;20024;-72
2021/05/25 02:35:42;;;;;;;5.53;2.88;;;18.90;49.10;;;;;;5095764;28;20042;-72
2021/05/25 02:38:09;;;;;;;4.50;2.40;;;18.90;49.10;;;;;;5096128;28;20027;-72
2021/05/25 02:40:36;;;;;;;5.53;2.80;;;18.90;49.10;;;;;;5095708;28;20499;-72
2021/05/25 02:43:03;;;;;;;5.63;2.72;;;18.90;49.10;;;;;;5095759;28;20313;-71
2021/05/25 02:45:28;;;;;;;6.53;2.60;;;18.90;49.10;;;;;;5095694;28;20119;-72
2021/05/25 02:47:54;;;;;;;5.97;3.10;;;18.90;49.10;;;;;;5095626;28;20490;-72
2021/05/25 02:50:21;;;;;;;5.07;2.47;;;18.90;49.10;;;;;;5096195;28;20053;-72
2021/05/25 02:52:49;;;;;;;6.05;3.42;;;18.90;49.10;;;;;;5096442;28;20055;-73
2021/05/25 02:55:17;;;;;;;6.72;3.20;;;18.90;49.10;;;;;;5095360;28;20032;-72
2021/05/25 02:57:42;;;;;;;6.13;3.13;;;18.90;49.10;;;;;;5095291;28;20020;-72
2021/05/25 03:00:15;;;;;;;5.88;2.83;;;18.80;49.10;;;;;;5095360;28;20030;-72
2021/05/25 03:02:40;;;;;;;6.40;2.95;;;18.80;49.10;;;;;;5094571;28;20031;-73
2021/05/25 03:05:08;;;;;;;5.32;2.50;;;18.80;49.10;;;;;;5094233;28;20036;-73
2021/05/25 03:07:33;;;;;;;6.32;3.10;;;18.80;49.10;;;;;;5095383;28;20077;-72
2021/05/25 03:09:59;;;;;;;6.22;3.22;;;18.80;49.10;;;;;;5095462;28;20016;-73
2021/05/25 03:12:25;;;;;;;6.55;3.20;;;18.90;49.10;;;;;;5095607;28;20032;-73
2021/05/25 03:14:51;;;;;;;5.68;2.90;;;18.80;49.10;;;;;;5095512;28;20020;-73
2021/05/25 03:17:18;;;;;;;9.13;3.10;;;18.80;49.10;;;;;;5095178;28;20024;-73
2021/05/25 03:19:44;;;;;;;5.50;3.03;;;18.90;49.10;;;;;;5095744;28;20364;-73
2021/05/25 03:22:09;;;;;;;5.50;2.70;;;18.80;49.10;;;;;;5094704;28;20054;-73
2021/05/25 03:24:35;;;;;;;5.35;2.60;;;18.80;49.10;;;;;;5094981;28;20026;-73
2021/05/25 03:27:00;;;;;;;6.50;3.47;;;18.80;49.00;;;;;;5094942;28;20496;-73
2021/05/25 03:29:26;;;;;;;6.50;3.33;;;18.80;49.00;;;;;;5093452;28;20103;-73
2021/05/25 03:31:51;;;;;;;6.28;3.15;;;18.80;49.10;;;;;;5095238;28;20028;-73
2021/05/25 03:34:17;;;;;;;6.13;3.00;;;18.80;49.00;;;;;;5095232;28;20035;-73
2021/05/25 03:36:42;;;;;;;6.72;3.13;;;18.80;49.10;;;;;;5094824;28;20024;-73
2021/05/25 03:39:08;;;;;;;6.95;3.60;;;18.80;49.00;;;;;;5095087;28;20020;-73
2021/05/25 03:41:33;;;;;;;5.57;3.05;;;18.80;49.00;;;;;;5094609;28;20429;-74
2021/05/25 03:44:00;;;;;;;7.32;3.00;;;18.80;49.00;;;;;;5094783;28;20032;-74
2021/05/25 03:46:26;;;;;;;6.28;3.08;;;18.80;49.00;;;;;;5093170;28;20285;-74
2021/05/25 03:48:52;;;;;;;5.63;2.78;;;18.80;49.00;;;;;;5094590;28;20024;-73
2021/05/25 03:51:17;;;;;;;5.45;2.80;;;18.80;49.00;;;;;;5094389;28;20024;-73
2021/05/25 03:53:43;;;;;;;6.20;3.08;;;18.80;49.00;;;;;;5094149;28;20016;-74
2021/05/25 03:58:53;;;;;;;5.40;2.88;;;18.80;48.90;;;;;;5094878;28;20024;-71
2021/05/25 04:01:21;;;;;;;6.28;3.20;;;18.80;48.90;;;;;;5094807;28;20487;-73
2021/05/25 04:03:49;;;;;;;5.70;3.10;;;18.80;48.90;;;;;;5096056;28;20055;-71
2021/05/25 04:06:14;;;;;;;6.45;3.42;;;18.80;49.00;;;;;;5095847;28;20133;-74
2021/05/25 04:08:40;;;;;;;5.72;2.90;;;18.80;48.90;;;;;;5100552;28;20024;-71
2021/05/25 04:11:06;;;;;;;7.20;2.95;;;18.80;48.90;;;;;;5108902;28;20032;-71
2021/05/25 04:13:31;;;;;;;5.82;3.15;;;18.80;48.90;;;;;;5095077;28;20035;-72
2021/05/25 04:15:57;;;;;;;6.05;3.00;;;18.80;48.90;;;;;;5094529;28;20357;-72
2021/05/25 04:18:23;;;;;;;6.25;2.97;;;18.80;48.90;;;;;;5094016;28;20028;-72
2021/05/25 04:20:49;;;;;;;6.68;3.33;;;18.80;48.90;;;;;;5094260;28;20020;-72
2021/05/25 04:23:15;;;;;;;6.47;3.00;;;18.80;48.90;;;;;;5093734;28;20093;-72
2021/05/25 04:25:41;;;;;;;5.63;2.70;;;18.80;48.90;;;;;;5092826;28;20487;-72
2021/05/25 04:28:07;;;;;;;6.40;3.40;;;18.80;48.90;;;;;;5093923;28;20024;-73
2021/05/25 04:30:32;;;;;;;6.28;3.10;;;18.80;48.80;;;;;;5093794;28;20484;-72
2021/05/25 04:32:58;;;;;;;7.40;3.38;;;18.80;48.80;;;;;;5093605;28;20137;-72
2021/05/25 04:35:23;;;;;;;6.22;3.35;;;18.80;48.80;;;;;;5093573;28;20028;-72
2021/05/25 04:37:51;;;;;;;5.43;2.83;;;18.80;48.80;;;;;;5093321;28;20070;-72
2021/05/25 04:40:17;;;;;;;5.57;2.92;;;18.90;48.80;;;;;;5093119;28;20032;-72
2021/05/25 04:42:42;;;;;;;6.13;3.35;;;18.80;48.80;;;;;;5093814;28;20034;-72
2021/05/25 04:45:09;;;;;;;6.75;3.47;;;18.80;48.80;;;;;;5093128;28;20020;-73
2021/05/25 04:47:34;;;;;;;6.22;3.05;;;18.80;48.80;;;;;;5092037;28;20028;-72
2021/05/25 04:50:01;;;;;;;5.53;3.00;;;18.80;48.80;;;;;;5093685;28;20368;-73
2021/05/25 04:52:26;;;;;;;5.97;3.10;;;18.80;48.70;;;;;;5094002;28;20081;-72
2021/05/25 04:54:52;;;;;;;5.53;2.95;;;18.80;48.80;;;;;;5093540;28;20024;-73
2021/05/25 04:57:17;;;;;;;4.80;2.60;;;18.80;48.80;;;;;;5093241;28;20020;-73
2021/05/25 04:59:43;;;;;;;5.70;2.78;;;18.90;48.80;;;;;;5093629;28;20393;-72
2021/05/25 05:02:08;;;;;;;5.55;2.70;;;18.80;48.70;;;;;;5092199;28;20468;-72
2021/05/25 05:04:34;;;;;;;5.47;2.50;;;18.80;48.80;;;;;;5093521;28;20536;-72
2021/05/25 05:06:59;;;;;;;5.57;2.63;;;18.80;48.70;;;;;;5092713;28;20036;-72
2021/05/25 05:09:25;;;;;;;5.55;2.75;;;18.80;48.80;;;;;;5094335;28;20024;-73
2021/05/25 05:11:50;;;;;;;5.93;2.90;;;18.80;48.70;;;;;;5094527;28;20024;-72
2021/05/25 05:14:16;;;;;;;6.07;3.08;;;18.80;48.80;;;;;;5093614;28;20020;-72
2021/05/25 05:16:41;;;;;;;5.35;2.92;;;18.80;48.70;;;;;;5093305;28;20046;-72
2021/05/25 05:19:07;;;;;;;5.93;3.08;;;18.80;48.70;;;;;;5093564;28;20077;-73
2021/05/25 05:21:32;;;;;;;5.32;2.90;;;18.80;48.70;;;;;;5093272;28;20028;-73
2021/05/25 05:23:58;;;;;;;5.07;2.60;;;18.80;48.70;;;;;;5092990;28;20102;-73
2021/05/25 05:26:23;;;;;;;5.82;2.85;;;18.80;48.70;;;;;;5093093;28;20079;-73
2021/05/25 05:28:49;;;;;;;5.75;2.92;;;18.80;48.70;;;;;;5091841;28;20047;-73
2021/05/25 05:31:15;;;;;;;5.00;2.50;;;18.80;48.70;;;;;;5093031;28;20024;-72
2021/05/25 05:33:40;;;;;;;6.10;2.92;;;18.80;48.70;;;;;;5093482;28;20031;-73
2021/05/25 05:36:06;;;;;;;5.95;2.90;;;18.80;48.70;;;;;;5093336;28;20027;-73
2021/05/25 05:38:32;;;;;;;6.30;2.75;;;18.80;48.70;;;;;;5093309;28;20409;-73
2021/05/25 05:41:04;;;;;;;5.65;2.40;;;18.80;48.70;;;;;;5093017;28;20063;-73
2021/05/25 05:43:32;;;;;;;6.50;3.05;;;18.80;48.60;;;;;;5093299;28;20028;-73
2021/05/25 05:45:59;;;;;;;4.80;2.45;;;18.80;48.70;;;;;;5092857;28;20036;-73
2021/05/25 05:48:25;;;;;;;5.28;2.60;;;18.80;48.60;;;;;;5093004;28;20490;-73
2021/05/25 05:50:51;;;;;;;5.25;2.60;;;18.80;48.70;;;;;;5093772;28;20024;-73
2021/05/25 05:53:16;;;;;;;4.95;2.60;;;18.80;48.60;;;;;;5096992;28;20024;-73
2021/05/25 05:55:42;;;;;;;5.88;2.78;;;18.80;48.60;;;;;;5097042;28;20024;-73
2021/05/25 05:58:07;;;;;;;5.40;2.65;;;18.80;48.60;;;;;;5096863;28;20032;-73
2021/05/25 06:00:33;;;;;;;5.00;2.50;;;18.80;48.60;;;;;;5096699;28;20032;-73
2021/05/25 06:03:00;;;;;;;5.43;2.53;;;18.80;48.60;;;;;;5096842;28;20081;-73
2021/05/25 06:05:26;;;;;;;5.25;2.45;;;18.80;48.50;;;;;;5096674;28;20034;-73
2021/05/25 06:07:52;;;;;;;5.18;2.53;;;18.80;48.60;;;;;;5096704;28;20487;-73
2021/05/25 06:10:17;;;;;;;4.85;2.40;;;18.80;48.50;;;;;;5096778;28;20040;-73
2021/05/25 06:12:43;;;;;;;5.60;2.60;;;18.80;48.60;;;;;;5081900;28;20042;-73
2021/05/25 06:15:09;;;;;;;4.72;2.17;;;18.80;48.60;;;;;;5074103;28;20025;-73
2021/05/25 06:17:36;;;;;;;6.13;2.55;;;18.80;48.60;;;;;;5094537;28;20028;-73
2021/05/25 06:20:02;;;;;;;5.40;2.80;;;18.80;48.70;;;;;;5085088;28;20021;-73
2021/05/25 06:22:27;;;;;;;4.75;2.50;;;18.80;48.60;;;;;;5077015;28;20089;-74
2021/05/25 06:24:53;;;;;;;4.90;2.60;;;18.80;48.50;;;;;;5085217;28;20024;-75
2021/05/25 06:27:19;;;;;;;5.07;2.40;;;18.80;48.60;;;;;;5084758;28;20084;-75
2021/05/25 06:29:45;;;;;;;5.15;2.60;;;18.80;48.60;;;;;;5084733;28;20024;-74
2021/05/25 06:32:10;;;;;;;5.65;2.63;;;18.80;48.60;;;;;;5086229;28;20080;-73
2021/05/25 06:34:36;;;;;;;5.40;2.53;;;18.90;48.50;;;;;;5092977;28;20067;-73
2021/05/25 06:37:02;;;;;;;9.45;2.30;;;18.80;48.50;;;;;;5089995;28;20031;-75
2021/05/25 06:39:27;;;;;;;6.22;2.30;;;18.90;48.50;;;;;;5080668;28;20082;-73
2021/05/25 06:41:53;;;;;;;5.13;2.40;;;18.90;48.50;;;;;;5074712;28;20024;-73
2021/05/25 06:44:19;;;;;;;4.85;2.53;;;18.90;48.50;;;;;;5074500;28;20111;-73
2021/05/25 06:46:44;;;;;;;6.95;2.53;;;18.90;48.50;;;;;;5074962;28;20037;-73
2021/05/25 06:49:11;;;;;;;4.78;2.47;;;18.90;48.60;;;;;;5092743;28;20035;-72
2021/05/25 06:51:37;;;;;;;5.63;2.78;;;18.90;48.60;;;;;;5094755;28;20558;-73
2021/05/25 06:54:05;;;;;;;4.43;2.25;;;18.90;48.60;;;;;;5093702;28;20024;-73
2021/05/25 06:56:30;;;;;;;4.05;2.17;;;18.90;48.60;;;;;;5094533;28;20031;-73
2021/05/25 06:58:56;;;;;;;5.07;2.33;;;18.90;48.60;;;;;;5098821;28;20019;-72
2021/05/25 07:01:22;;;;;;;6.75;2.53;;;18.90;48.60;;;;;;5113572;28;20030;-75
2021/05/25 07:03:50;;;;;;;4.30;1.88;;;18.90;48.70;;;;;;5110542;28;20019;-73
2021/05/25 07:06:16;;;;;;;5.68;2.65;;;18.90;48.60;;;;;;5093959;28;20061;-72
2021/05/25 07:08:41;;;;;;;4.40;2.30;;;19.00;48.40;;;;;;5094228;28;20168;-74
2021/05/25 07:11:08;;;;;;;4.28;2.20;;;19.00;48.40;;;;;;5093573;28;20027;-70
2021/05/25 07:13:33;;;;;;;4.78;2.40;;;19.10;48.40;;;;;;5083613;28;20032;-71
2021/05/25 07:15:59;;;;;;;4.40;2.13;;;19.20;48.30;;;;;;5074644;28;20422;-73
2021/05/25 07:18:24;;;;;;;5.40;2.08;;;19.20;48.20;;;;;;5074647;28;20112;-71
2021/05/25 07:20:50;;;;;;;4.20;2.08;;;19.30;48.10;;;;;;5074384;28;20032;-72
2021/05/25 07:23:15;;;;;;;4.43;2.08;;;19.40;48.00;;;;;;5093824;28;20053;-71
2021/05/25 07:25:41;;;;;;;4.05;2.00;;;19.50;47.90;;;;;;5073579;28;20032;-72
2021/05/25 07:28:07;;;;;;;4.10;2.00;;;19.50;47.80;;;;;;5073774;28;20346;-72
2021/05/25 07:30:32;;;;;;;4.50;1.88;;;19.60;47.80;;;;;;5073023;28;20021;-71
2021/05/25 07:32:58;;;;;;;8.75;2.28;;;19.60;47.80;;;;;;5073375;28;20021;-73
2021/05/25 07:35:24;;;;;;;4.43;2.08;;;19.60;47.80;;;;;;5093150;28;20039;-74
2021/05/25 07:37:50;;;;;;;4.22;1.85;;;19.70;47.80;;;;;;5093527;28;20023;-73
2021/05/25 07:40:17;;;;;;;4.13;1.88;;;19.70;47.80;;;;;;5093417;28;20406;-72
2021/05/25 07:42:43;;;;;;;3.92;2.00;;;19.80;47.70;;;;;;5093606;28;20186;-73
2021/05/25 07:45:09;;;;;;;5.68;2.13;;;19.80;47.50;;;;;;5093318;28;20032;-75
2021/05/25 07:47:35;;;;;;;4.05;2.00;;;19.90;47.50;;;;;;5092969;28;20540;-71
2021/05/25 07:50:12;;;;;;;3.53;1.70;;;20.00;47.50;;;;;;5093121;28;20058;-71
2021/05/25 07:52:44;;;;;;;4.65;1.95;;;20.00;47.50;;;;;;5093474;28;20028;-72
2021/05/25 07:55:11;;;;;;;4.38;2.00;;;20.10;47.40;;;;;;5093313;28;20032;-74
2021/05/25 07:57:37;;;;;;;4.72;1.98;;;20.10;47.30;;;;;;5092959;28;20016;-73
2021/05/25 08:00:05;;;;;;;4.22;1.85;;;20.10;47.20;;;;;;5093131;28;20119;-75
2021/05/25 08:02:31;;;;;;;3.80;1.85;;;20.20;47.20;;;;;;5093298;28;20039;-70
2021/05/25 08:04:56;;;;;;;3.33;1.50;;;20.20;47.20;;;;;;5092483;28;20024;-71
2021/05/25 08:07:22;;;;;;;4.40;1.90;;;20.20;47.20;;;;;;5093142;28;20387;-74
2021/05/25 08:09:47;;;;;;;4.75;2.13;;;20.30;47.20;;;;;;5092674;28;20028;-72
2021/05/25 08:12:13;;;;;;;3.53;1.70;;;20.30;47.20;;;;;;5092592;28;20103;-71
2021/05/25 08:14:38;;;;;;;5.32;2.00;;;20.30;47.20;;;;;;5072810;28;20024;-69
2021/05/25 08:17:18;;;;;;;3.45;1.60;;;20.30;47.20;;;;;;5072624;28;20170;-70
2021/05/25 08:19:46;;;;;;;4.80;1.80;;;20.30;47.20;;;;;;5072453;28;20383;-74
2021/05/25 08:22:12;;;;;;;3.85;1.50;;;20.40;47.20;;;;;;5073878;28;20086;-74
2021/05/25 08:24:38;;;;;;;7.18;1.70;;;20.40;47.10;;;;;;5091453;28;20407;-69
2021/05/25 08:27:03;;;;;;;3.95;1.90;;;20.40;47.10;;;;;;5092509;28;20123;-71
2021/05/25 08:29:29;;;;;;;5.20;2.00;;;20.50;47.10;;;;;;5092438;28;20020;-70
2021/05/25 08:31:54;;;;;;;4.82;2.42;;;20.50;46.90;;;;;;5091022;28;20024;-70
2021/05/25 08:34:20;;;;;;;3.08;1.45;;;20.50;46.90;;;;;;5091780;28;20028;-70
2021/05/25 08:36:45;;;;;;;3.60;1.83;;;20.60;46.90;;;;;;5092699;28;20053;-71
2021/05/25 08:39:11;;;;;;;4.25;1.90;;;20.60;46.90;;;;;;5092709;28;20298;-71
2021/05/25 08:41:37;;;;;;;2.30;1.30;;;20.70;47.00;;;;;;5092441;28;20065;-73
2021/05/25 08:44:03;;;;;;;3.17;1.52;;;20.70;46.90;;;;;;5092622;28;20035;-73
2021/05/25 08:46:28;;;;;;;3.85;1.67;;;20.70;46.90;;;;;;5092789;28;20036;-74
2021/05/25 08:48:56;;;;;;;4.20;1.60;;;20.70;46.90;;;;;;5095433;28;20039;-73
2021/05/25 08:51:21;;;;;;;4.13;1.73;;;20.80;46.90;;;;;;5097995;28;20032;-72
2021/05/25 08:53:47;;;;;;;3.67;1.63;;;20.80;46.80;;;;;;5092923;28;20028;-69
2021/05/25 08:56:12;;;;;;;3.55;1.48;;;20.80;46.70;;;;;;5091997;28;20028;-69
2021/05/25 08:58:38;;;;;;;4.72;1.92;;;20.90;46.70;;;;;;5094628;28;20020;-68
2021/05/25 09:01:04;;;;;;;3.58;1.63;;;21.00;46.60;;;;;;5093537;28;20106;-68
2021/05/25 09:03:31;;;;;;;5.50;1.70;;;21.00;46.50;;;;;;5092525;28;20021;-69
2021/05/25 09:06:08;;;;;;;4.22;1.70;;;21.00;46.60;;;;;;5091910;28;20035;-70
2021/05/25 09:08:35;;;;;;;3.88;1.40;;;21.00;46.60;;;;;;5092231;28;20028;-70
2021/05/25 09:11:11;;;;;;;3.50;1.67;;;21.00;46.60;;;;;;5092135;28;20024;-69
2021/05/25 09:13:37;;;;;;;3.20;1.77;;;21.00;46.60;;;;;;5081002;28;20349;-69
2021/05/25 09:16:07;;;;;;;3.08;1.70;;;21.10;46.50;;;;;;5071870;28;20163;-71
2021/05/25 09:18:44;;;;;;;4.03;1.65;;;21.10;46.50;;;;;;5072028;28;20441;-71
2021/05/25 09:21:10;;;;;;;2.55;1.20;;;21.20;46.30;;;;;;5071444;28;20040;-71
2021/05/25 09:23:36;;;;;;;2.60;1.30;;;21.20;46.30;;;;;;5071833;28;20044;-68
2021/05/25 09:26:05;;;;;;;2.83;1.17;;;21.30;46.10;;;;;;5073530;28;20115;-71
2021/05/25 09:28:32;;;;;;;3.72;1.33;;;21.30;46.10;;;;;;5074891;28;20032;-71
2021/05/25 09:30:58;;;;;;;3.67;1.60;;;21.40;45.90;;;;;;5075374;28;20040;-70
2021/05/25 09:33:23;;;;;;;4.05;1.58;;;21.50;45.90;;;;;;5076874;28;20020;-69
2021/05/25 09:35:50;;;;;;;5.57;1.67;;;21.50;46.00;;;;;;5081568;28;20052;-67
2021/05/25 09:38:18;;;;;;;2.92;1.20;;;21.50;46.00;;;;;;5087110;28;20028;-67
2021/05/25 09:40:46;;;;;;;6.47;1.58;;;21.50;46.00;;;;;;5092396;28;20062;-66
2021/05/25 09:43:15;;;;;;;4.90;1.48;;;21.50;46.00;;;;;;5092159;28;20042;-69
2021/05/25 09:46:10;;;;;;;3.72;1.73;;;21.50;46.00;;;;;;5095423;28;20035;-69
2021/05/25 09:48:41;;;;;;;4.55;1.33;;;21.50;46.10;;;;;;5095474;28;20020;-72
2021/05/25 09:51:22;;;;;;;3.75;1.25;;;21.50;46.20;;;;;;5080228;28;20032;-71
2021/05/25 09:53:49;;;;;;;3.63;1.50;;;21.60;46.10;;;;;;5074689;28;20024;-72
2021/05/25 09:56:25;;;;;;;3.20;1.20;;;21.70;46.00;;;;;;5080176;28;20028;-71
2021/05/25 09:58:51;;;;;;;4.10;1.27;;;21.70;45.80;;;;;;5095122;28;20020;-67
2021/05/25 10:01:17;;;;;;;7.18;1.67;;;21.70;45.90;;;;;;5092462;28;20492;-70
2021/05/25 10:03:42;;;;;;;3.42;1.45;;;21.70;46.00;;;;;;5095588;28;20149;-73
2021/05/25 10:06:09;;;;;;;3.85;1.40;;;21.80;46.10;;;;;;5093968;28;20059;-69
2021/05/25 10:08:36;;;;;;;3.25;1.45;;;21.90;46.10;;;;;;5094019;28;20024;-71
2021/05/25 10:11:03;;;;;;;5.85;1.10;;;21.80;46.20;;;;;;5095768;28;20097;-64
2021/05/25 10:13:31;;;;;;;6.93;1.52;;;21.90;46.40;;;;;;5095994;28;20028;-65
2021/05/25 10:15:57;;;;;;;6.05;1.50;;;21.90;46.10;;;;;;5095951;28;20039;-63
2021/05/25 10:21:10;;;;;;;2.72;1.23;;;22.00;46.40;;;;;;5095035;28;20476;-62
2021/05/25 10:23:37;;;;;;;4.40;1.52;;;22.00;46.50;;;;;;5095257;28;20048;-63
2021/05/25 10:26:09;;;;;;;2.83;1.20;;;22.00;46.50;;;;;;5095465;28;20036;-63
2021/05/25 10:28:40;;;;;;;4.60;1.45;;;22.00;46.60;;;;;;5095627;28;20027;-64
2021/05/25 10:31:27;;;;;;;3.15;1.08;;;22.00;46.70;;;;;;5095368;28;20161;-62
2021/05/25 10:34:11;;;;;;;4.32;1.33;;;22.10;46.40;;;;;;5096084;28;20467;-68
2021/05/25 10:36:44;;;;;;;3.80;1.10;;;22.00;46.40;;;;;;5094705;28;20425;-67
2021/05/25 10:39:32;;;;;;;6.50;1.53;;;22.00;46.40;;;;;;5094797;28;20021;-65
2021/05/25 10:42:20;;;;;;;6.20;1.27;;;22.10;46.40;;;;;;5093969;28;20273;-62
2021/05/25 10:45:00;;;;;;;4.15;1.13;;;22.00;45.80;;;;;;5095133;28;20024;-61
2021/05/25 10:47:34;;;;;;;6.88;1.38;;;21.70;45.50;;;;;;5093366;28;20118;-64
2021/05/25 10:52:39;;;;;;;4.10;1.20;;;21.90;46.50;;;;;;5095145;28;20290;-62
2021/05/25 10:55:05;;;;;;;3.58;0.95;;;22.00;46.40;;;;;;5095552;28;20027;-64
2021/05/25 10:57:36;;;;;;;6.07;1.70;;;22.00;46.40;;;;;;5095124;28;20087;-61
2021/05/25 11:00:12;;;;;;;5.03;1.10;;;21.80;46.00;;;;;;5094931;28;20024;-60
2021/05/25 11:02:57;;;;;;;3.28;1.00;;;21.90;46.80;;;;;;5093311;28;20024;-61
2021/05/25 11:05:34;;;;;;;4.07;1.30;;;22.00;46.70;;;;;;5093565;28;20039;-60
2021/05/25 11:08:08;;;;;;;4.45;1.30;;;22.00;46.70;;;;;;5095086;28;20020;-60
2021/05/25 11:10:39;;;;;;;3.13;1.20;;;22.00;46.60;;;;;;5094882;28;20031;-61
2021/05/25 11:13:14;;;;;;;4.43;1.05;;;22.00;46.60;;;;;;5094874;28;20028;-61
2021/05/25 11:21:39;;;;;;;3.33;1.20;;;22.00;46.50;;;;;;5094586;28;20031;-61
2021/05/25 11:24:29;;;;;;;2.92;0.98;;;22.10;46.50;;;;;;5085128;28;20075;-64
2021/05/25 11:27:05;;;;;;;2.03;1.10;;;22.00;46.40;;;;;;5094241;28;20066;-63
2021/05/25 11:29:36;;;;;;;3.30;1.08;;;22.10;46.30;;;;;;5092771;28;20101;-63
2021/05/25 11:32:11;;;;;;;2.38;1.10;;;22.10;46.40;;;;;;5094817;28;20524;-63
2021/05/25 11:34:37;;;;;;;4.03;1.30;;;22.10;46.20;;;;;;5095211;28;20032;-62
2021/05/25 11:37:04;;;;;;;5.28;1.10;;;22.10;46.30;;;;;;5097969;28;20471;-63
2021/05/25 11:39:32;;;;;;;2.08;0.82;;;22.20;46.20;;;;;;5094102;28;20064;-61
2021/05/25 11:41:58;;;;;;;3.00;1.10;;;22.20;46.20;;;;;;5078583;28;20111;-61
2021/05/25 11:44:44;;;;;;;5.15;1.25;;;22.20;46.20;;;;;;5072330;28;20060;-60
2021/05/25 11:47:11;;;;;;;5.15;0.93;;;22.20;46.20;;;;;;5080064;28;20036;-60
2021/05/25 11:49:39;;;;;;;3.03;1.23;;;22.20;46.30;;;;;;5075299;28;20021;-60
2021/05/25 11:52:23;;;;;;;3.90;1.30;;;22.30;46.20;;;;;;5072476;28;20032;-61
2021/05/25 11:54:50;;;;;;;4.75;1.17;;;22.40;46.20;;;;;;5072572;28;20110;-64
2021/05/25 11:57:30;;;;;;;2.92;1.00;;;22.30;46.60;;;;;;5073324;28;20029;-61
2021/05/25 12:00:01;;;;;;;4.07;0.93;;;22.40;46.30;;;;;;5081837;28;20050;-61
2021/05/25 12:02:28;;;;;;;2.50;0.98;;;22.40;46.30;;;;;;5092109;28;20082;-62
2021/05/25 12:05:12;;;;;;;3.20;1.20;;;22.40;46.10;;;;;;5083393;28;20107;-59
2021/05/25 12:07:40;;;;;;;5.25;1.00;;;22.50;46.10;;;;;;5072242;28;20071;-60
2021/05/25 12:10:12;;;;;;;4.32;1.13;;;22.60;45.80;;;;;;5072624;28;20027;-60
2021/05/25 12:12:41;;;;;;;3.22;1.20;;;22.80;45.70;;;;;;5072379;28;20020;-60
2021/05/25 12:15:26;;;;;;;3.40;0.88;;;22.70;45.70;;;;;;5073299;28;20053;-60
2021/05/25 12:17:55;;;;;;;;;;;22.80;45.70;;;;;;5088909;28;20017;-61
2021/05/25 12:20:24;;;;;;;4.25;1.15;;;22.90;45.60;;;;;;5095767;28;19911;-62
2021/05/25 12:22:52;;;;;;;2.72;0.82;;;22.90;45.40;;;;;;5103762;28;20143;-65
2021/05/25 12:25:19;;;;;;;4.05;0.90;;;22.90;45.60;;;;;;5103151;28;20032;-66
2021/05/25 12:28:04;;;;;;;2.72;1.02;;;23.00;45.50;;;;;;5102714;28;20040;-65
2021/05/25 12:30:32;;;;;;;2.67;1.17;;;23.00;45.40;;;;;;5100604;28;20214;-63
2021/05/25 12:32:58;;;;;;;4.57;1.02;;;23.00;45.60;;;;;;5098081;28;20040;-62
2021/05/25 12:35:27;;;;;;;3.15;1.10;;;22.90;45.70;;;;;;5095569;28;20034;-62
2021/05/25 12:38:06;;;;;;;2.63;0.90;;;22.90;45.80;;;;;;5092858;28;20058;-62
2021/05/25 12:40:33;;;;;;;4.60;1.02;;;22.80;45.90;;;;;;5090935;28;20020;-62
2021/05/25 12:42:59;;;;;;;3.35;0.90;;;22.80;46.00;;;;;;5072330;28;20028;-61
2021/05/25 12:45:30;;;;;;;2.40;0.90;;;22.80;46.00;;;;;;5072184;28;20178;-61
2021/05/25 12:48:00;;;;;;;2.17;0.90;;;22.80;46.00;;;;;;5072147;28;20028;-60
2021/05/25 12:50:38;;;;;;;3.38;0.90;;;22.70;46.10;;;;;;5072498;28;20051;-59
2021/05/25 12:53:15;;;;;;;4.88;1.25;;;22.70;46.10;;;;;;5072410;28;20055;-62
2021/05/25 12:55:53;;;;;;;3.22;1.20;;;22.70;46.10;;;;;;5072331;28;20042;-62
2021/05/25 12:58:38;;;;;;;3.13;0.80;;;22.70;46.30;;;;;;5072232;28;20491;-62
2021/05/25 13:01:33;;;;;;;3.65;1.27;;;22.70;46.30;;;;;;5071408;28;20075;-62
2021/05/25 13:04:01;;;;;;;4.15;1.00;;;22.60;46.30;;;;;;5087378;28;20016;-62
2021/05/25 13:06:33;;;;;;;2.25;0.85;;;22.60;46.30;;;;;;5072096;28;20070;-62